Daily Weather Observations for Burdell (Townsville)
For Wednesday 20th February 2019

This table is designed for ease of comparison to Bureau of Meteorology recorded weather data.

Station Details Name: BURDELL Lat: -19.24 Lon: 146.69 Height: 8.5 m
Date/Time
EST
Temp
°C
App
Temp
°C
Dew
Point
°C
Rel
Hum
%
Delta-T
°C
Wind Press
QNH
hPa
Press
MSL
hPa
Rain since
9am
mm
Dir  Spd
km/h
Gust
km/h
Spd
kts
Gust
kts
20/11:30pm 28.1 35.1 26.1 90 1.5 S 1 2 0 1 1002.3 1002.3 0.0
20/11:00pm 28.3 35.7 26.5 90 1.4 W 2 5 1 3 1002.4 1002.4 0.0
20/10:30pm 28.7 36.2 26.7 89 1.5 WNW 0 1 0 1 1002.3 1002.3 0.0
20/10:00pm 29.0 36.6 26.9 89 1.6 WNW 0 1 0 1 1002.2 1002.2 0.0
20/09:30pm 29.3 37.3 26.9 87 1.8 NW 2 5 1 3 1002.0 1002.0 0.0
20/09:00pm 29.6 38.4 27.2 87 1.8 NW 3 5 1 3 1001.5 1001.5 0.0
20/08:30pm 29.8 39.1 27.4 87 1.8 NNW 4 5 2 3 1001.4 1001.4 0.0
20/08:00pm 30.3 40.5 27.8 87 1.9 NNW 6 10 3 6 1001.3 1001.3 0.0
20/07:30pm 30.7 41.3 27.7 84 2.3 NNW 8 10 4 6 1000.9 1000.9 0.0
20/07:00pm 31.1 42.3 27.9 83 2.5 NNW 6 8 3 4 1000.4 1000.4 0.0
20/06:30pm 32.4 45.8 28.5 81 3.0 NNW 8 13 5 7 999.9 999.9 0.0
20/06:00pm 34.1 48.2 28.3 73 4.5 NNW 11 13 6 7 999.6 999.6 0.0
20/05:30pm 35.4 46.8 26.8 62 6.5 NNW 17 21 9 11 999.4 999.4 0.0
20/05:00pm 36.3 46.9 26.1 56 7.7 NNW 17 21 9 11 999.4 999.4 0.0
20/04:30pm 36.7 48.7 26.8 57 7.5 N 19 23 10 13 999.1 999.1 0.0
20/04:00pm 36.8 45.7 25.1 52 8.7 NNW 22 29 12 16 999.2 999.2 0.0
20/03:30pm 37.7 48.6 26.1 52 8.7 NNW 14 18 8 10 999.2 999.2 0.0
20/03:00pm 41.6 54.1 26.3 44 11.5 WNW 15 23 8 13 999.6 999.6 0.0
20/02:30pm 40.9 49.7 24.1 39 12.3 WSW 22 34 12 18 999.9 999.9 0.0
20/02:00pm 40.4 50.0 24.8 42 11.5 WSW 21 26 11 14 1000.3 1000.3 0.0
20/01:30pm 39.7 48.4 24.3 42 11.3 SSW 17 26 9 14 1001.1 1001.1 0.0
20/01:00pm 38.9 48.8 25.2 46 10.2 SSW 25 34 14 18 1001.8 1001.8 0.0
20/12:30pm 38.3 46.9 24.5 46 10.1 SSW 21 29 12 16 1002.3 1002.3 0.0
20/12:00pm 37.8 46.1 24.5 47 9.8 SSW 23 29 12 16 1002.8 1002.8 0.0
20/11:30am 36.9 44.7 24.3 49 9.2 SW 27 32 14 17 1003.4 1003.4 0.0
20/11:00am 34.8 45.3 26.5 64 6.3 N 19 26 10 14 1003.7 1003.7 0.0
20/10:30am 34.9 47.8 27.6 66 5.6 NNW 8 16 4 9 1003.8 1003.8 0.0
20/10:00am 34.9 43.8 25.4 58 7.1 WSW 10 16 5 9 1004.3 1004.3 0.0
20/09:30am 33.5 41.2 24.9 61 6.3 W 6 10 3 6 1004.4 1004.4 0.0
20/09:00am 32.3 41.4 26.3 71 4.5 NNW 2 2 1 1 1004.4 1004.4 0.0
20/08:30am 30.7 38.3 26.2 79 3.4 NNW 4 8 2 4 1004.5 1004.5 0.8
20/08:00am 29.2 36.2 26.3 85 2.2 NNW 8 10 5 6 1004.5 1004.5 0.8
20/07:30am 27.9 34.8 26.7 94 0.9 NW 3 5 2 3 1004.0 1004.0 0.8
20/07:00am 26.9 34.2 26.6 98 0.2 WSW 2 5 1 3 1004.0 1004.0 0.8
20/06:30am 26.2 33.3 26.0 99 0.1 WSW 0 2 0 1 1003.7 1003.7 0.5
20/06:00am 26.1 33.0 25.8 98 0.2 WSW 0 1 0 1 1003.5 1003.5 0.5
20/05:30am 26.3 33.3 26.0 98 0.2 WSW 0 1 0 1 1003.3 1003.3 0.5
20/05:00am 26.6 33.8 26.3 98 0.2 CALM 0 0 0 0 1003.2 1003.2 0.5
20/04:30am 26.8 34.1 26.5 98 0.2 W 2 2 1 1 1002.7 1002.7 0.5
20/04:00am 26.9 34.0 26.4 97 0.4 W 1 2 1 1 1002.9 1002.9 0.5
20/03:30am 27.0 34.2 26.5 97 0.4 WNW 2 2 1 1 1002.9 1002.9 0.5
20/03:00am 27.2 34.5 26.6 97 0.5 NW 1 2 0 1 1002.9 1002.9 0.5
20/02:30am 27.3 34.6 26.6 96 0.5 N 1 2 1 1 1003.0 1003.0 0.5
20/02:00am 27.6 35.0 26.5 95 0.8 CALM 0 0 0 0 1003.3 1003.3 0.5
20/01:30am 27.8 35.4 26.7 94 0.8 N 1 2 0 1 1003.6 1003.6 0.5
20/01:00am 27.9 35.1 26.8 94 0.8 W 3 5 2 3 1003.8 1003.8 0.5
20/12:30am 28.1 35.3 26.7 92 1.1 NW 3 5 1 3 1004.0 1004.0 0.5
20/12:00am 28.1 35.3 26.7 92 1.1 N 2 2 1 1 1004.3 1004.3 0.5
 


NOTE: The apparent temperature specified in the table above is calculated using both the Heat Index and Steadman method. This differs to the Bureau of Meteorology's calculation which uses the Steadman method alone.